Time;durP1;ratioP1;P1;durP2;ratioP2;P2;SDS_P1;SDS_P2;PMS_P1;PMS_P2;Temp;Humidity;BMP_temperature;BMP_pressure;BME280_temperature;BME280_humidity;BME280_pressure;Samples;Min_cycle;Max_cycle;Signal;HPM_P1;HPM_P2
2023/03/27 00:02:17;;;;;;;7.43;0.90;;;2.10;99.90;;;;;;4876464;29;20813;-72
2023/03/27 00:04:43;;;;;;;6.85;0.82;;;2.10;99.90;;;;;;4876809;29;20076;-72
2023/03/27 00:07:09;;;;;;;6.00;0.70;;;2.00;99.90;;;;;;4877335;29;20040;-72
2023/03/27 00:09:36;;;;;;;4.23;0.30;;;2.00;99.90;;;;;;4876405;29;20057;-72
2023/03/27 00:12:02;;;;;;;6.90;0.60;;;2.00;99.90;;;;;;4861138;29;20304;-72
2023/03/27 00:14:29;;;;;;;8.57;0.45;;;1.90;99.90;;;;;;4877522;29;20627;-72
2023/03/27 00:16:56;;;;;;;4.43;0.60;;;1.80;99.90;;;;;;4874624;29;20071;-72
2023/03/27 00:19:21;;;;;;;6.20;0.70;;;1.80;99.90;;;;;;4862049;29;20096;-72
2023/03/27 00:21:47;;;;;;;3.43;0.30;;;1.70;99.90;;;;;;4875063;29;20454;-73
2023/03/27 00:24:14;;;;;;;3.03;0.43;;;1.50;99.90;;;;;;4877449;29;20432;-72
2023/03/27 00:26:41;;;;;;;6.63;0.82;;;1.40;99.90;;;;;;4876262;29;20048;-72
2023/03/27 00:29:07;;;;;;;4.13;0.40;;;1.40;99.90;;;;;;4876721;29;20408;-72
2023/03/27 00:31:33;;;;;;;1.27;0.30;;;1.30;99.90;;;;;;4861494;29;20040;-72
2023/03/27 00:33:58;;;;;;;3.57;0.33;;;1.20;99.90;;;;;;4877243;29;20044;-72
2023/03/27 00:36:24;;;;;;;6.07;0.40;;;1.20;99.90;;;;;;4862107;29;20469;-72
2023/03/27 00:38:51;;;;;;;3.50;0.40;;;1.10;99.90;;;;;;4876964;29;20047;-72
2023/03/27 00:41:18;;;;;;;6.78;0.60;;;1.10;99.90;;;;;;4873939;29;20045;-72
2023/03/27 00:43:44;;;;;;;6.72;0.63;;;1.10;99.90;;;;;;4861236;29;20056;-72
2023/03/27 00:46:24;;;;;;;5.13;0.60;;;1.00;99.90;;;;;;4877160;29;20041;-72
2023/03/27 00:48:51;;;;;;;4.25;0.32;;;1.00;99.90;;;;;;4872213;29;20292;-72
2023/03/27 00:51:18;;;;;;;3.90;0.50;;;1.00;99.90;;;;;;4861231;29;20047;-72
2023/03/27 00:53:46;;;;;;;4.63;0.47;;;0.90;99.90;;;;;;4876137;29;20422;-72
2023/03/27 00:56:14;;;;;;;7.95;0.85;;;0.90;99.90;;;;;;4873176;29;20037;-72
2023/03/27 00:58:50;;;;;;;7.68;1.08;;;0.80;99.90;;;;;;4861293;29;20059;-72
2023/03/27 01:01:17;;;;;;;4.72;1.08;;;0.70;99.90;;;;;;4875396;29;20043;-72
2023/03/27 01:03:46;;;;;;;7.95;0.73;;;0.60;99.90;;;;;;4861090;29;20096;-72
2023/03/27 01:06:13;;;;;;;5.13;0.80;;;0.50;99.90;;;;;;4876344;29;20071;-72
2023/03/27 01:08:41;;;;;;;4.90;0.65;;;0.50;99.90;;;;;;4877321;29;20077;-72
2023/03/27 01:11:26;;;;;;;6.13;0.55;;;0.40;99.90;;;;;;4859428;29;20131;-72
2023/03/27 01:14:07;;;;;;;4.78;0.60;;;0.30;99.90;;;;;;4877131;29;20472;-72
2023/03/27 01:16:54;;;;;;;6.50;0.63;;;0.20;99.90;;;;;;4861280;29;20052;-72
2023/03/27 01:20:08;;;;;;;6.93;0.70;;;0.20;99.90;;;;;;4858752;29;20086;-72
2023/03/27 01:22:55;;;;;;;9.48;1.08;;;0.20;99.90;;;;;;4837172;29;20105;-72
2023/03/27 01:25:56;;;;;;;10.07;0.90;;;0.20;99.90;;;;;;4824183;29;20151;-72
2023/03/27 01:28:55;;;;;;;8.38;0.50;;;0.30;99.90;;;;;;4813479;29;20060;-72
2023/03/27 01:31:26;;;;;;;7.80;0.65;;;0.40;99.90;;;;;;4876829;29;20045;-72
2023/03/27 01:34:52;;;;;;;9.85;0.60;;;0.60;99.90;;;;;;4875187;29;20088;-72
2023/03/27 01:37:59;;;;;;;4.03;0.50;;;0.80;99.90;;;;;;4798339;29;20050;-72
2023/03/27 01:40:42;;;;;;;7.28;0.50;;;0.90;99.90;;;;;;4859322;29;20053;-72
2023/03/27 01:43:40;;;;;;;8.70;0.40;;;1.00;99.90;;;;;;4879742;29;20576;-72
2023/03/27 01:46:14;;;;;;;2.30;0.28;;;1.10;99.90;;;;;;4879807;29;20041;-72
2023/03/27 01:48:50;;;;;;;2.95;0.30;;;1.20;99.90;;;;;;4868537;29;20036;-72
2023/03/27 01:51:24;;;;;;;2.80;0.40;;;1.40;99.90;;;;;;4879724;29;20242;-72
2023/03/27 01:54:04;;;;;;;5.80;0.50;;;1.60;99.90;;;;;;4879924;29;20083;-72
2023/03/27 01:56:50;;;;;;;2.67;0.40;;;1.70;99.90;;;;;;4878422;29;20079;-72
2023/03/27 01:59:16;;;;;;;;;;;1.70;99.90;;;;;;4879092;29;20044;-72
2023/03/27 02:01:49;;;;;;;6.80;0.82;;;1.60;99.90;;;;;;4878093;29;20871;-72
2023/03/27 02:04:23;;;;;;;6.07;0.65;;;1.60;99.90;;;;;;4876536;29;20048;-72
2023/03/27 02:06:53;;;;;;;4.30;0.45;;;1.60;99.90;;;;;;4885137;29;20045;-72
2023/03/27 02:09:38;;;;;;;8.55;0.90;;;1.50;99.90;;;;;;4879457;29;20072;-72
2023/03/27 02:12:10;;;;;;;5.43;0.45;;;1.40;99.90;;;;;;4865157;29;20152;-72
2023/03/27 02:14:47;;;;;;;3.30;0.63;;;1.40;99.90;;;;;;4878958;29;20044;-72
2023/03/27 02:17:17;;;;;;;13.50;2.10;;;1.30;99.90;;;;;;4879644;29;20049;-72
2023/03/27 02:19:55;;;;;;;7.03;0.73;;;1.10;99.90;;;;;;4864399;29;20453;-72
2023/03/27 02:22:21;;;;;;;4.68;0.70;;;1.00;99.90;;;;;;4873446;29;20052;-72
2023/03/27 02:24:47;;;;;;;6.45;0.57;;;0.90;99.90;;;;;;4862994;29;20204;-72
2023/03/27 02:27:43;;;;;;;6.72;0.70;;;0.80;99.90;;;;;;4875772;29;20040;-72
2023/03/27 02:30:18;;;;;;;3.70;0.57;;;0.80;99.90;;;;;;4858526;29;20632;-72
2023/03/27 02:32:52;;;;;;;9.00;0.93;;;0.70;99.90;;;;;;4862521;29;20036;-72
2023/03/27 02:35:43;;;;;;;9.35;0.90;;;0.70;99.90;;;;;;4878577;29;20052;-72
2023/03/27 02:38:26;;;;;;;6.75;0.57;;;0.70;99.90;;;;;;4879082;29;20052;-72
2023/03/27 02:41:10;;;;;;;10.45;1.42;;;0.80;99.90;;;;;;4863613;29;20056;-72
2023/03/27 02:43:50;;;;;;;5.45;0.55;;;0.90;99.90;;;;;;4878626;29;20044;-72
2023/03/27 02:46:39;;;;;;;9.55;1.38;;;1.20;99.90;;;;;;4877511;29;20115;-72
2023/03/27 02:49:14;;;;;;;8.68;1.20;;;1.40;99.90;;;;;;4877036;29;20524;-72
2023/03/27 02:51:46;;;;;;;5.00;1.10;;;1.50;99.90;;;;;;4862367;29;20132;-72
2023/03/27 02:54:16;;;;;;;6.78;1.25;;;1.50;99.90;;;;;;4878117;29;20053;-72
2023/03/27 02:56:51;;;;;;;8.20;1.02;;;1.40;99.90;;;;;;4862709;29;20692;-72
2023/03/27 02:59:41;;;;;;;6.57;1.17;;;1.30;99.90;;;;;;4873281;29;20040;-72
2023/03/27 03:02:12;;;;;;;3.70;0.70;;;1.30;99.90;;;;;;4879424;29;20497;-72
2023/03/27 03:04:58;;;;;;;2.53;0.50;;;1.20;99.90;;;;;;4862543;29;20055;-72
2023/03/27 03:07:25;;;;;;;2.55;0.63;;;1.20;99.90;;;;;;4878331;29;20494;-72
2023/03/27 03:09:54;;;;;;;3.72;0.70;;;1.10;99.90;;;;;;4861286;29;20465;-72
2023/03/27 03:12:21;;;;;;;3.42;0.40;;;1.10;99.90;;;;;;4876841;29;20056;-72
2023/03/27 03:14:47;;;;;;;4.72;0.60;;;1.00;99.90;;;;;;4862844;29;20044;-72
2023/03/27 03:17:14;;;;;;;6.43;1.00;;;1.00;99.90;;;;;;4877770;29;20505;-72
2023/03/27 03:19:40;;;;;;;4.28;0.60;;;1.10;99.90;;;;;;4872770;29;20052;-72
2023/03/27 03:22:06;;;;;;;8.23;1.02;;;1.10;99.90;;;;;;4878025;29;20052;-72
2023/03/27 03:24:34;;;;;;;6.53;1.10;;;1.10;99.90;;;;;;4878145;29;20045;-72
2023/03/27 03:27:02;;;;;;;8.23;1.05;;;1.30;99.90;;;;;;4875246;29;20047;-72
2023/03/27 03:29:28;;;;;;;7.85;1.27;;;1.30;99.90;;;;;;4877227;29;20074;-72
2023/03/27 03:31:55;;;;;;;8.80;2.03;;;1.30;99.90;;;;;;4876420;29;20100;-72
2023/03/27 03:34:22;;;;;;;8.85;1.13;;;1.40;99.90;;;;;;4854002;29;20049;-72
2023/03/27 03:36:48;;;;;;;6.43;0.90;;;1.30;99.90;;;;;;4862009;29;20052;-72
2023/03/27 03:39:14;;;;;;;7.28;1.10;;;1.40;99.90;;;;;;4877498;29;20420;-72
2023/03/27 03:41:41;;;;;;;13.75;1.85;;;1.50;99.90;;;;;;4877913;29;20048;-72
2023/03/27 03:44:08;;;;;;;10.23;1.55;;;1.50;99.90;;;;;;4877633;29;20045;-72
2023/03/27 03:46:34;;;;;;;10.18;1.55;;;1.50;99.90;;;;;;4877471;29;20036;-72
2023/03/27 03:49:00;;;;;;;8.48;1.00;;;1.40;99.90;;;;;;4877620;29;20128;-72
2023/03/27 03:51:27;;;;;;;8.20;1.50;;;1.40;99.90;;;;;;4877156;29;20131;-72
2023/03/27 03:53:53;;;;;;;7.72;1.35;;;1.30;99.90;;;;;;4877736;29;20048;-72
2023/03/27 03:56:18;;;;;;;11.17;2.17;;;1.30;99.90;;;;;;4862101;29;20387;-72
2023/03/27 03:58:44;;;;;;;13.17;1.50;;;1.20;99.90;;;;;;4862210;29;20646;-72
2023/03/27 04:01:10;;;;;;;9.77;1.57;;;1.10;99.90;;;;;;4876852;29;20044;-72
2023/03/27 04:03:36;;;;;;;7.73;1.30;;;1.10;99.90;;;;;;4876885;29;20084;-72
2023/03/27 04:06:06;;;;;;;11.27;1.50;;;1.10;99.90;;;;;;4857121;29;20048;-72
2023/03/27 04:08:33;;;;;;;11.73;1.83;;;1.10;99.90;;;;;;4876414;29;20052;-72
2023/03/27 04:10:59;;;;;;;7.30;1.15;;;1.10;99.90;;;;;;4876673;29;20061;-72
2023/03/27 04:13:25;;;;;;;11.87;2.33;;;1.10;99.90;;;;;;4877235;29;20052;-72
2023/03/27 04:15:51;;;;;;;9.37;1.50;;;1.10;99.90;;;;;;4876348;29;20404;-72
2023/03/27 04:18:18;;;;;;;14.73;1.55;;;1.10;99.90;;;;;;4872899;29;20041;-72
2023/03/27 04:20:48;;;;;;;7.70;1.75;;;1.10;99.90;;;;;;4877164;29;20362;-72
2023/03/27 04:23:17;;;;;;;6.25;1.30;;;1.20;99.90;;;;;;4877278;29;20059;-72
2023/03/27 04:25:46;;;;;;;10.73;0.90;;;1.20;99.90;;;;;;4872444;29;20044;-72
2023/03/27 04:28:16;;;;;;;9.98;1.15;;;1.30;99.90;;;;;;4877196;29;20063;-72
2023/03/27 04:30:49;;;;;;;6.75;0.90;;;1.40;99.90;;;;;;4877116;29;20052;-72
2023/03/27 04:33:17;;;;;;;9.95;1.85;;;1.40;99.90;;;;;;4876954;29;20040;-72
2023/03/27 04:35:49;;;;;;;4.55;0.77;;;1.40;99.90;;;;;;4876556;29;20052;-72
2023/03/27 04:38:15;;;;;;;8.77;0.75;;;1.40;99.90;;;;;;4875894;29;20108;-72
2023/03/27 04:40:44;;;;;;;8.05;0.80;;;1.40;99.90;;;;;;4874254;29;20048;-72
2023/03/27 04:43:12;;;;;;;6.35;0.75;;;1.30;99.90;;;;;;4893475;29;20056;-72
2023/03/27 04:45:37;;;;;;;5.53;0.95;;;1.40;99.90;;;;;;4875557;29;20052;-72
2023/03/27 04:48:04;;;;;;;6.57;0.90;;;1.40;99.90;;;;;;4876277;29;20040;-72
2023/03/27 04:50:31;;;;;;;6.43;0.80;;;1.40;99.90;;;;;;4875979;29;20047;-72
2023/03/27 04:52:59;;;;;;;6.28;0.75;;;1.40;99.90;;;;;;4876350;29;20406;-72
2023/03/27 04:55:25;;;;;;;9.43;0.90;;;1.40;99.90;;;;;;4861526;29;20048;-72
2023/03/27 04:57:52;;;;;;;5.35;0.95;;;1.40;99.90;;;;;;4865255;29;20830;-72
2023/03/27 05:00:19;;;;;;;5.57;1.42;;;1.40;99.90;;;;;;4863207;29;20044;-72
2023/03/27 05:02:51;;;;;;;5.38;0.60;;;1.40;99.90;;;;;;4879511;29;20468;-72
2023/03/27 05:05:18;;;;;;;6.18;0.73;;;1.30;99.90;;;;;;4878549;29;20063;-72
2023/03/27 05:07:48;;;;;;;6.90;0.85;;;1.30;99.90;;;;;;4876326;29;20036;-72
2023/03/27 05:10:16;;;;;;;4.90;0.70;;;1.20;99.90;;;;;;4879318;29;20052;-72
2023/03/27 05:12:46;;;;;;;3.25;0.50;;;1.20;99.90;;;;;;4880520;29;20119;-72
2023/03/27 05:15:13;;;;;;;4.63;0.47;;;1.10;99.90;;;;;;4865205;29;20131;-72
2023/03/27 05:17:42;;;;;;;6.80;0.70;;;1.00;99.90;;;;;;4864765;29;20052;-72
2023/03/27 05:20:13;;;;;;;2.28;0.30;;;1.00;99.90;;;;;;4875866;29;20077;-72
2023/03/27 05:22:40;;;;;;;3.13;0.40;;;1.00;99.90;;;;;;4869706;29;20048;-72
2023/03/27 05:25:07;;;;;;;3.05;0.60;;;1.00;99.90;;;;;;4873935;29;20051;-72
2023/03/27 05:27:33;;;;;;;5.55;0.70;;;0.90;99.90;;;;;;4862668;29;20481;-72
2023/03/27 05:30:00;;;;;;;2.92;0.47;;;0.90;99.90;;;;;;4860597;29;20161;-72
2023/03/27 05:32:25;;;;;;;7.85;1.15;;;0.90;99.90;;;;;;4879540;29;20591;-72
2023/03/27 05:34:53;;;;;;;6.70;0.93;;;0.90;99.90;;;;;;4874755;29;20043;-72
2023/03/27 05:37:22;;;;;;;3.25;0.63;;;0.80;99.90;;;;;;4875942;29;20772;-72
2023/03/27 05:39:48;;;;;;;6.57;0.75;;;0.80;99.90;;;;;;4860956;29;20377;-72
2023/03/27 05:42:14;;;;;;;4.85;1.10;;;0.80;99.90;;;;;;4879322;29;20088;-72
2023/03/27 05:44:44;;;;;;;4.05;0.40;;;0.90;99.90;;;;;;4864144;29;20051;-72
2023/03/27 05:47:11;;;;;;;4.68;0.50;;;1.00;99.90;;;;;;4879853;29;20519;-72
2023/03/27 05:49:36;;;;;;;4.68;0.73;;;1.00;99.90;;;;;;4879871;29;20044;-72
2023/03/27 05:52:03;;;;;;;5.93;0.63;;;1.10;99.90;;;;;;4879593;29;20070;-72
2023/03/27 05:54:29;;;;;;;7.03;0.82;;;1.10;99.90;;;;;;4879973;29;20049;-72
2023/03/27 05:56:54;;;;;;;5.30;0.60;;;1.10;99.90;;;;;;4875023;29;20052;-72
2023/03/27 05:59:20;;;;;;;5.73;1.43;;;1.10;99.90;;;;;;4875480;29;20727;-72
2023/03/27 06:01:47;;;;;;;7.70;0.70;;;1.10;99.90;;;;;;4878741;29;20132;-72
2023/03/27 06:04:16;;;;;;;10.98;1.40;;;1.00;99.90;;;;;;4878618;29;20040;-72
2023/03/27 06:06:45;;;;;;;5.80;0.40;;;1.10;99.90;;;;;;4868732;29;20107;-72
2023/03/27 06:09:13;;;;;;;6.60;0.50;;;1.10;99.90;;;;;;4878393;29;20548;-72
2023/03/27 06:11:41;;;;;;;6.22;0.98;;;1.10;99.90;;;;;;4887945;29;20084;-72
2023/03/27 06:14:07;;;;;;;7.20;0.47;;;1.10;99.90;;;;;;4876323;29;20441;-72
2023/03/27 06:16:33;;;;;;;6.15;0.52;;;1.10;99.90;;;;;;4865355;29;20048;-72
2023/03/27 06:19:00;;;;;;;4.23;0.40;;;1.10;99.90;;;;;;4880101;29;20052;-72
2023/03/27 06:21:25;;;;;;;3.97;0.68;;;1.10;99.90;;;;;;4864690;29;20143;-72
2023/03/27 06:23:51;;;;;;;4.63;0.40;;;1.20;99.90;;;;;;4864274;29;20151;-72
2023/03/27 06:26:18;;;;;;;6.07;1.55;;;1.20;99.90;;;;;;4880247;29;20041;-72
2023/03/27 06:28:44;;;;;;;5.38;0.80;;;1.30;99.90;;;;;;4879070;29;20044;-72
2023/03/27 06:31:10;;;;;;;8.10;0.90;;;1.40;99.90;;;;;;4863974;29;20403;-72
2023/03/27 06:33:38;;;;;;;8.65;0.85;;;1.50;99.90;;;;;;4878448;29;20052;-72
2023/03/27 06:36:04;;;;;;;7.13;0.90;;;1.70;99.90;;;;;;4878933;29;20048;-72
2023/03/27 06:38:31;;;;;;;11.30;0.80;;;1.80;99.90;;;;;;4862803;29;20056;-72
2023/03/27 06:40:58;;;;;;;7.03;0.60;;;1.90;99.90;;;;;;4878938;29;20055;-72
2023/03/27 06:43:24;;;;;;;8.55;1.00;;;2.00;99.90;;;;;;4878029;29;20063;-72
2023/03/27 06:45:51;;;;;;;6.88;0.85;;;2.10;99.90;;;;;;4863140;29;20421;-72
2023/03/27 06:48:19;;;;;;;8.90;1.08;;;2.20;99.90;;;;;;4861775;29;20048;-72
2023/03/27 06:50:48;;;;;;;7.65;0.60;;;2.30;99.90;;;;;;4878060;29;20044;-72
2023/03/27 06:53:16;;;;;;;6.60;0.73;;;2.40;99.90;;;;;;4878533;29;20069;-72
2023/03/27 06:55:43;;;;;;;10.27;1.20;;;2.50;99.90;;;;;;4877001;29;20052;-72
2023/03/27 06:58:13;;;;;;;2.63;0.38;;;2.60;99.90;;;;;;4878372;29;20032;-72
2023/03/27 07:00:40;;;;;;;8.65;0.60;;;2.70;99.90;;;;;;4876098;29;20569;-72
2023/03/27 07:03:08;;;;;;;5.65;0.55;;;2.80;99.90;;;;;;4898070;29;20087;-73
2023/03/27 07:05:36;;;;;;;7.38;0.77;;;2.90;99.90;;;;;;4875622;29;20401;-73
2023/03/27 07:08:05;;;;;;;6.55;0.40;;;3.10;99.90;;;;;;4873123;29;20430;-72
2023/03/27 07:10:31;;;;;;;9.73;0.75;;;3.30;99.90;;;;;;4881338;29;20486;-72
2023/03/27 07:12:57;;;;;;;2.45;0.47;;;3.50;99.90;;;;;;4882009;29;20412;-72
2023/03/27 07:15:23;;;;;;;6.80;0.80;;;3.60;99.90;;;;;;4867476;29;20049;-73
2023/03/27 07:17:57;;;;;;;5.82;0.52;;;3.50;99.90;;;;;;4881872;29;20123;-73
2023/03/27 07:20:26;;;;;;;6.22;0.50;;;3.40;99.90;;;;;;4865587;29;20056;-73
2023/03/27 07:22:54;;;;;;;5.95;0.90;;;3.30;99.90;;;;;;4878076;29;20048;-73
2023/03/27 07:25:20;;;;;;;5.78;0.70;;;3.10;99.90;;;;;;4860691;29;20123;-73
2023/03/27 07:27:46;;;;;;;9.35;0.80;;;3.00;99.90;;;;;;4865553;29;20037;-72
2023/03/27 07:30:13;;;;;;;8.93;1.17;;;3.00;99.90;;;;;;4863885;29;20039;-72
2023/03/27 07:32:41;;;;;;;4.43;0.80;;;3.00;99.90;;;;;;4874980;29;20057;-73
2023/03/27 07:35:08;;;;;;;10.05;0.98;;;3.10;99.90;;;;;;4877116;29;20100;-72
2023/03/27 07:37:38;;;;;;;2.90;0.50;;;3.20;99.90;;;;;;4876861;29;20502;-72
2023/03/27 07:40:05;;;;;;;7.75;1.02;;;3.30;99.90;;;;;;4856321;29;20079;-73
2023/03/27 07:42:32;;;;;;;5.60;0.63;;;3.40;99.90;;;;;;4860650;29;20045;-73
2023/03/27 07:44:59;;;;;;;3.65;0.52;;;3.50;99.90;;;;;;4878034;29;20059;-73
2023/03/27 07:47:24;;;;;;;2.70;0.43;;;3.60;99.90;;;;;;4860991;29;20102;-72
2023/03/27 07:49:50;;;;;;;5.63;0.83;;;3.70;99.90;;;;;;4863646;29;20521;-73
2023/03/27 07:52:17;;;;;;;11.05;1.27;;;3.80;99.90;;;;;;4877729;29;20072;-73
2023/03/27 07:54:42;;;;;;;6.47;0.50;;;3.90;99.90;;;;;;4881550;29;20146;-73
2023/03/27 07:57:09;;;;;;;4.87;0.67;;;4.00;99.90;;;;;;4874901;29;20059;-73
2023/03/27 07:59:35;;;;;;;4.97;0.75;;;4.10;99.90;;;;;;4855361;29;20044;-73
2023/03/27 08:02:01;;;;;;;4.60;0.73;;;4.20;99.90;;;;;;4871834;29;20052;-72
2023/03/27 08:04:27;;;;;;;6.97;0.70;;;4.30;99.90;;;;;;4858279;29;20048;-72
2023/03/27 08:06:53;;;;;;;5.37;0.80;;;4.40;99.90;;;;;;4876292;29;20059;-73
2023/03/27 08:09:20;;;;;;;6.03;0.60;;;4.60;99.90;;;;;;4878973;29;20121;-73
2023/03/27 08:11:46;;;;;;;8.18;0.70;;;4.60;99.90;;;;;;4877534;29;20057;-73
2023/03/27 08:14:12;;;;;;;4.93;0.60;;;4.60;99.90;;;;;;4877776;29;20048;-73
2023/03/27 08:16:37;;;;;;;4.47;1.00;;;4.50;99.90;;;;;;4864717;29;20500;-73
2023/03/27 08:19:05;;;;;;;7.50;0.73;;;4.40;99.90;;;;;;4876409;29;20063;-73
2023/03/27 08:21:32;;;;;;;8.43;1.25;;;4.40;99.90;;;;;;4881295;29;20532;-73
2023/03/27 08:24:00;;;;;;;8.93;1.13;;;4.40;99.90;;;;;;4874362;29;20395;-73
2023/03/27 08:26:26;;;;;;;7.88;0.77;;;4.30;99.90;;;;;;4877926;29;20045;-73
2023/03/27 08:28:53;;;;;;;8.02;0.95;;;4.10;99.90;;;;;;4862521;29;20060;-74
2023/03/27 08:31:19;;;;;;;4.53;0.70;;;3.70;99.90;;;;;;4869407;29;20127;-74
2023/03/27 08:33:45;;;;;;;5.43;0.60;;;3.50;99.90;;;;;;4876928;29;20140;-73
2023/03/27 08:36:13;;;;;;;4.43;0.60;;;3.30;99.90;;;;;;4878748;29;20103;-73
2023/03/27 08:38:40;;;;;;;3.75;0.70;;;3.20;99.90;;;;;;4862215;29;20050;-72
2023/03/27 08:41:30;;;;;;;3.88;0.50;;;3.30;99.90;;;;;;4878624;29;20467;-73
2023/03/27 08:44:00;;;;;;;5.45;0.88;;;3.40;99.90;;;;;;4880763;29;20041;-72
2023/03/27 08:46:30;;;;;;;3.65;0.80;;;3.60;99.90;;;;;;4876636;29;20071;-73
2023/03/27 08:49:13;;;;;;;4.75;0.82;;;3.80;99.90;;;;;;4864585;29;20059;-74
2023/03/27 08:51:57;;;;;;;4.55;0.57;;;4.00;99.90;;;;;;4875854;29;20375;-73
2023/03/27 08:54:27;;;;;;;5.80;0.52;;;4.20;99.90;;;;;;4865098;29;20273;-73
2023/03/27 08:56:53;;;;;;;2.97;0.38;;;4.40;99.90;;;;;;4879734;29;20048;-73
2023/03/27 08:59:26;;;;;;;4.03;0.50;;;4.60;99.90;;;;;;4862933;29;20051;-73
2023/03/27 09:02:25;;;;;;;10.77;0.90;;;4.70;99.90;;;;;;4879466;29;20052;-74
2023/03/27 09:05:24;;;;;;;7.32;0.60;;;4.90;99.90;;;;;;4892879;29;20044;-73
2023/03/27 09:08:11;;;;;;;3.58;0.65;;;5.30;99.90;;;;;;4867527;29;20063;-73
2023/03/27 09:11:14;;;;;;;5.65;0.77;;;5.80;99.90;;;;;;4878572;29;20472;-73
2023/03/27 09:13:45;;;;;;;7.97;1.08;;;6.00;99.90;;;;;;4877419;29;20080;-74
2023/03/27 09:16:17;;;;;;;8.23;0.82;;;6.10;99.90;;;;;;4863325;29;20048;-73
2023/03/27 09:18:49;;;;;;;5.05;0.77;;;6.30;99.90;;;;;;4878138;29;20060;-73
2023/03/27 09:21:33;;;;;;;4.50;0.43;;;6.20;99.90;;;;;;4863271;29;20135;-74
2023/03/27 09:24:03;;;;;;;2.47;0.30;;;5.80;99.90;;;;;;4864006;29;20421;-73
2023/03/27 09:26:34;;;;;;;3.53;0.32;;;5.50;99.90;;;;;;4877436;29;20127;-73
2023/03/27 09:29:06;;;;;;;4.00;0.30;;;5.30;99.90;;;;;;4875645;29;20047;-73
2023/03/27 09:31:34;;;;;;;2.80;0.93;;;5.30;99.90;;;;;;4874983;29;20051;-73
2023/03/27 09:34:06;;;;;;;0.65;0.22;;;5.40;99.90;;;;;;4876591;29;20460;-73
2023/03/27 09:36:34;;;;;;;2.92;0.30;;;5.30;99.90;;;;;;4875782;29;20482;-73
2023/03/27 09:39:06;;;;;;;1.25;0.30;;;5.20;99.90;;;;;;4876634;29;20074;-73
2023/03/27 09:41:47;;;;;;;1.27;0.30;;;5.10;99.90;;;;;;4876767;29;20579;-73
2023/03/27 09:44:24;;;;;;;3.78;0.32;;;5.10;99.90;;;;;;4880394;29;20072;-73
2023/03/27 09:46:57;;;;;;;2.13;0.30;;;5.10;99.90;;;;;;4879044;29;20040;-73
2023/03/27 09:49:24;;;;;;;2.10;0.40;;;5.20;99.90;;;;;;4863550;29;20087;-73
2023/03/27 09:51:55;;;;;;;2.75;0.50;;;5.30;99.90;;;;;;4863773;29;20497;-73
2023/03/27 09:54:23;;;;;;;3.60;0.30;;;5.40;99.90;;;;;;4863640;29;20067;-73
2023/03/27 09:57:05;;;;;;;1.52;0.30;;;5.50;99.90;;;;;;4864806;29;20091;-73
2023/03/27 09:59:37;;;;;;;5.30;0.30;;;5.60;99.90;;;;;;4863846;29;20049;-73
2023/03/27 10:02:36;;;;;;;9.43;0.95;;;5.60;99.90;;;;;;4878883;29;20051;-73
2023/03/27 10:05:21;;;;;;;4.22;0.57;;;5.80;99.90;;;;;;4826948;29;20520;-73
2023/03/27 10:07:47;;;;;;;6.55;0.40;;;5.90;99.90;;;;;;4877709;29;20045;-73
2023/03/27 10:10:16;;;;;;;3.70;0.60;;;5.90;99.90;;;;;;4863795;29;20087;-73
2023/03/27 10:12:44;;;;;;;4.50;0.40;;;6.10;99.90;;;;;;4860885;29;20127;-73
2023/03/27 10:15:31;;;;;;;5.22;0.40;;;6.30;99.90;;;;;;4864034;29;20048;-74
2023/03/27 10:17:59;;;;;;;4.22;0.32;;;6.40;99.90;;;;;;4876773;29;20143;-73
2023/03/27 10:20:25;;;;;;;5.95;0.63;;;6.50;99.90;;;;;;4878741;29;20055;-73
2023/03/27 10:23:08;;;;;;;7.50;0.65;;;6.70;99.90;;;;;;4875883;29;20052;-73
2023/03/27 10:25:49;;;;;;;3.38;0.30;;;6.70;99.90;;;;;;4864572;29;20056;-74
2023/03/27 10:28:18;;;;;;;7.00;0.82;;;6.80;99.90;;;;;;4879465;29;20504;-74
2023/03/27 10:30:44;;;;;;;4.95;0.95;;;7.00;99.90;;;;;;4879039;29;20037;-74
2023/03/27 10:33:10;;;;;;;5.23;0.63;;;7.30;99.90;;;;;;4875261;29;20058;-74
2023/03/27 10:35:40;;;;;;;5.60;1.00;;;7.60;99.90;;;;;;4861527;29;20055;-74
2023/03/27 10:38:18;;;;;;;5.53;0.50;;;7.80;99.90;;;;;;4863619;29;20048;-74
2023/03/27 10:40:48;;;;;;;4.75;0.40;;;7.80;95.90;;;;;;4861672;29;20051;-73
2023/03/27 10:43:32;;;;;;;2.47;0.30;;;7.30;91.30;;;;;;4859595;29;20048;-72
2023/03/27 10:46:04;;;;;;;2.75;0.55;;;6.80;88.00;;;;;;4878045;29;20178;-72
2023/03/27 10:48:36;;;;;;;3.45;0.38;;;6.60;91.60;;;;;;4854226;29;20519;-72
2023/03/27 10:51:05;;;;;;;2.13;0.35;;;6.60;87.30;;;;;;4872327;29;20247;-72
2023/03/27 10:53:40;;;;;;;4.85;0.30;;;6.70;70.50;;;;;;4863991;29;20056;-72
2023/03/27 10:56:25;;;;;;;5.00;0.50;;;6.90;69.10;;;;;;4855834;29;20056;-72
2023/03/27 10:59:03;;;;;;;3.55;0.40;;;7.10;68.70;;;;;;4879274;29;20071;-73
2023/03/27 11:01:39;;;;;;;4.20;0.50;;;7.30;70.10;;;;;;4881705;29;20044;-74
2023/03/27 11:04:19;;;;;;;9.10;0.70;;;7.60;67.80;;;;;;4864747;29;20048;-74
2023/03/27 11:06:48;;;;;;;7.30;0.60;;;7.70;69.00;;;;;;4880146;29;20041;-73
2023/03/27 11:09:35;;;;;;;6.65;0.52;;;7.60;70.10;;;;;;4864826;29;20516;-73
2023/03/27 11:12:08;;;;;;;8.88;0.88;;;7.60;74.30;;;;;;4870606;29;20061;-74
2023/03/27 11:14:52;;;;;;;5.75;0.77;;;7.60;73.20;;;;;;4881185;29;20057;-74
2023/03/27 11:17:26;;;;;;;5.22;0.95;;;7.60;69.00;;;;;;4876905;29;20485;-73
2023/03/27 11:19:59;;;;;;;4.65;0.60;;;7.50;67.30;;;;;;4882240;29;20056;-73
2023/03/27 11:22:39;;;;;;;2.95;0.65;;;7.50;67.00;;;;;;4866323;29;20416;-73
2023/03/27 11:25:20;;;;;;;5.97;0.47;;;7.70;66.10;;;;;;4872570;29;20050;-73
2023/03/27 11:28:00;;;;;;;7.05;1.08;;;7.90;67.90;;;;;;4877725;29;20048;-74
2023/03/27 11:30:33;;;;;;;4.55;0.73;;;7.70;64.50;;;;;;4880036;29;20438;-74
2023/03/27 11:33:31;;;;;;;5.28;0.93;;;7.60;68.90;;;;;;4879240;29;20566;-74
2023/03/27 11:36:10;;;;;;;4.43;0.50;;;7.60;65.60;;;;;;4878349;29;20056;-73
2023/03/27 11:38:42;;;;;;;9.40;0.80;;;7.40;66.30;;;;;;4864170;29;20064;-74
2023/03/27 11:41:11;;;;;;;5.30;0.57;;;7.40;66.80;;;;;;4863750;29;20136;-74
2023/03/27 11:43:39;;;;;;;4.80;0.85;;;7.60;62.30;;;;;;4879625;29;20040;-74
2023/03/27 11:46:46;;;;;;;8.23;0.95;;;7.60;60.80;;;;;;4864499;29;20052;-73
2023/03/27 11:49:20;;;;;;;9.27;0.90;;;7.70;63.30;;;;;;4874633;29;20049;-74
2023/03/27 11:52:13;;;;;;;4.25;0.80;;;7.60;66.00;;;;;;4878528;29;20119;-74
2023/03/27 11:54:56;;;;;;;6.53;1.10;;;7.40;64.90;;;;;;4874353;29;20119;-73
2023/03/27 11:57:25;;;;;;;4.47;0.63;;;7.50;64.00;;;;;;4863770;29;20148;-74
2023/03/27 12:00:32;;;;;;;6.45;0.93;;;7.40;59.10;;;;;;4879516;29;20532;-74
2023/03/27 12:03:12;;;;;;;6.63;0.68;;;7.40;61.60;;;;;;4804204;29;20110;-73
2023/03/27 12:05:56;;;;;;;7.03;0.70;;;7.40;60.30;;;;;;4829528;29;20041;-73
2023/03/27 12:08:30;;;;;;;8.93;1.33;;;7.40;62.20;;;;;;4852618;29;20329;-73
2023/03/27 12:11:01;;;;;;;6.18;1.25;;;7.40;62.00;;;;;;4878727;29;20057;-74
2023/03/27 12:13:56;;;;;;;6.15;0.93;;;7.40;62.80;;;;;;4855914;29;20048;-74
2023/03/27 12:16:50;;;;;;;10.07;0.90;;;7.30;64.80;;;;;;4857479;29;20048;-74
2023/03/27 12:19:35;;;;;;;6.68;0.75;;;7.50;66.30;;;;;;4864727;29;20036;-74
2023/03/27 12:22:13;;;;;;;4.43;0.77;;;7.80;65.30;;;;;;4880414;29;20128;-74
2023/03/27 12:25:01;;;;;;;7.05;1.17;;;7.80;62.60;;;;;;4864386;29;20116;-73
2023/03/27 12:27:41;;;;;;;8.02;1.02;;;7.70;61.70;;;;;;4865362;29;20041;-74
2023/03/27 12:30:31;;;;;;;7.80;0.90;;;7.90;63.30;;;;;;4852848;29;20044;-74
2023/03/27 12:33:25;;;;;;;8.73;1.30;;;8.00;60.30;;;;;;4879098;29;20075;-74
2023/03/27 12:35:55;;;;;;;6.82;0.82;;;7.80;60.50;;;;;;4869991;29;20064;-75
2023/03/27 12:38:35;;;;;;;5.20;0.75;;;7.60;60.20;;;;;;4879268;29;20048;-74
2023/03/27 12:41:27;;;;;;;6.82;0.90;;;7.70;59.80;;;;;;4872302;29;20462;-74
2023/03/27 12:43:55;;;;;;;9.32;1.00;;;8.00;60.10;;;;;;4880075;29;20048;-74
2023/03/27 12:46:25;;;;;;;9.98;1.52;;;8.00;61.40;;;;;;4880561;29;20523;-75
2023/03/27 12:48:55;;;;;;;4.93;0.52;;;7.90;63.40;;;;;;4880524;29;20121;-74
2023/03/27 12:52:03;;;;;;;10.70;1.30;;;7.60;63.90;;;;;;4864715;29;20131;-74
2023/03/27 12:54:31;;;;;;;7.20;1.42;;;7.30;65.30;;;;;;4877614;29;20048;-75
2023/03/27 12:57:06;;;;;;;8.27;1.30;;;7.30;65.30;;;;;;4864459;29;20098;-75
2023/03/27 12:59:47;;;;;;;11.73;1.52;;;7.40;65.40;;;;;;4880530;29;20079;-74
2023/03/27 13:02:42;;;;;;;7.57;0.93;;;7.70;65.40;;;;;;4880591;29;20127;-74
2023/03/27 13:05:27;;;;;;;7.63;1.08;;;7.90;64.10;;;;;;4873511;29;20044;-75
2023/03/27 13:08:33;;;;;;;3.95;0.80;;;7.70;64.00;;;;;;4880037;29;20047;-74
2023/03/27 13:11:16;;;;;;;7.00;0.88;;;7.60;64.60;;;;;;4879834;29;20061;-74
2023/03/27 13:14:01;;;;;;;5.25;0.75;;;7.70;58.10;;;;;;4880645;29;20044;-74
2023/03/27 13:16:39;;;;;;;7.75;0.80;;;7.70;58.60;;;;;;4868969;29;20516;-74
2023/03/27 13:19:18;;;;;;;3.83;0.50;;;7.90;58.70;;;;;;4866329;29;20041;-74
2023/03/27 13:22:09;;;;;;;5.95;0.70;;;8.00;57.30;;;;;;4880067;29;20512;-74
2023/03/27 13:25:16;;;;;;;8.70;1.15;;;7.70;59.10;;;;;;4846694;29;20048;-74
2023/03/27 13:28:04;;;;;;;5.88;0.88;;;7.80;61.50;;;;;;4836988;29;20127;-74
2023/03/27 13:30:43;;;;;;;7.15;0.80;;;8.00;60.70;;;;;;4879708;29;20050;-74